Time;durP1;ratioP1;P1;durP2;ratioP2;P2;SDS_P1;SDS_P2;PMS_P1;PMS_P2;Temp;Humidity;BMP_temperature;BMP_pressure;BME280_temperature;BME280_humidity;BME280_pressure;Samples;Min_cycle;Max_cycle;Signal;HPM_P1;HPM_P2
2021/04/11 00:01:30;;;;;;;7.55;3.58;;;;;;;10.85;45.91;95732.44;5050249;28;20056;-65
2021/04/11 00:03:56;;;;;;;8.77;3.67;;;;;;;10.82;45.80;95723.03;5051606;28;20049;-65
2021/04/11 00:06:22;;;;;;;5.60;3.30;;;;;;;10.81;46.06;95737.00;5050111;28;20558;-65
2021/04/11 00:08:48;;;;;;;6.13;3.22;;;;;;;10.77;46.30;95730.59;5051498;28;20057;-65
2021/04/11 00:11:15;;;;;;;8.13;3.50;;;;;;;10.77;46.05;95730.59;5050007;28;20045;-65
2021/04/11 00:13:41;;;;;;;5.63;3.17;;;;;;;10.75;46.33;95724.69;5050983;28;20108;-64
2021/04/11 00:16:08;;;;;;;4.90;3.20;;;;;;;10.73;45.87;95724.22;5049865;28;20052;-65
2021/04/11 00:18:34;;;;;;;5.50;3.47;;;;;;;10.70;46.10;95731.13;5050489;28;20559;-64
2021/04/11 00:21:03;;;;;;;4.75;3.20;;;;;;;10.67;46.25;95724.44;5051334;28;20401;-64
2021/04/11 00:23:30;;;;;;;6.15;3.55;;;;;;;10.63;46.20;95720.78;5049095;28;20044;-64
2021/04/11 00:25:56;;;;;;;5.28;3.35;;;;;;;10.60;46.60;95716.03;5051327;28;20053;-64
2021/04/11 00:28:22;;;;;;;6.43;3.28;;;;;;;10.57;46.44;95716.66;5049756;28;20051;-64
2021/04/11 00:30:48;;;;;;;5.32;3.28;;;;;;;10.50;46.98;95710.97;5051022;28;20049;-65
2021/04/11 00:33:24;;;;;;;8.50;3.55;;;;;;;10.48;46.50;95706.97;5049456;28;20504;-65
2021/04/11 00:35:58;;;;;;;6.63;3.05;;;;;;;10.43;46.78;95707.97;5050420;28;20048;-64
2021/04/11 00:38:27;;;;;;;5.95;3.15;;;;;;;10.40;46.45;95712.16;5050260;28;20098;-64
2021/04/11 00:40:56;;;;;;;7.70;3.45;;;;;;;10.37;46.50;95706.59;5050102;28;20660;-64
2021/04/11 00:43:24;;;;;;;5.93;3.53;;;;;;;10.34;47.06;95702.63;5050333;28;20040;-64
2021/04/11 00:46:11;;;;;;;5.57;3.42;;;;;;;10.31;46.79;95703.28;5049248;28;20136;-64
2021/04/11 00:48:37;;;;;;;7.20;3.65;;;;;;;10.27;46.88;95696.09;5050625;28;20102;-64
2021/04/11 00:51:08;;;;;;;7.43;3.72;;;;;;;10.24;47.02;95696.78;5049435;28;20041;-65
2021/04/11 00:53:34;;;;;;;6.35;4.35;;;;;;;10.20;47.41;95700.13;5030520;28;20049;-64
2021/04/11 00:56:02;;;;;;;6.20;4.00;;;;;;;10.20;47.25;95691.97;5030250;28;20060;-64
2021/04/11 00:58:29;;;;;;;4.20;3.10;;;;;;;10.19;47.55;95695.81;5044541;28;20103;-64
2021/04/11 01:00:55;;;;;;;6.38;3.50;;;;;;;10.16;48.42;95691.03;5050366;28;20048;-64
2021/04/11 01:03:24;;;;;;;5.68;3.45;;;;;;;10.13;48.55;95696.34;5049991;28;20049;-64
2021/04/11 01:05:51;;;;;;;5.32;3.65;;;;;;;10.09;49.41;95690.75;5050830;28;20396;-64
2021/04/11 01:08:20;;;;;;;4.97;3.42;;;;;;;10.07;49.35;95693.00;5049197;28;20048;-64
2021/04/11 01:10:53;;;;;;;6.80;3.63;;;;;;;10.04;49.01;95688.22;5050706;28;20416;-64
2021/04/11 01:13:21;;;;;;;6.25;3.90;;;;;;;10.00;48.90;95690.00;5049151;28;20057;-64
2021/04/11 01:15:48;;;;;;;7.43;3.42;;;;;;;9.94;49.59;95678.53;5049702;28;20049;-64
2021/04/11 01:18:14;;;;;;;6.38;3.78;;;;;;;9.89;50.79;95683.38;5049500;28;20057;-65
2021/04/11 01:20:41;;;;;;;5.43;3.63;;;;;;;9.86;50.01;95678.59;5049867;28;20056;-64
2021/04/11 01:23:20;;;;;;;7.10;3.83;;;;;;;9.82;50.32;95677.66;5049563;28;20079;-64
2021/04/11 01:25:50;;;;;;;5.38;3.45;;;;;;;9.77;51.52;95680.56;5049105;28;20484;-64
2021/04/11 01:28:19;;;;;;;7.35;3.25;;;;;;;9.75;52.01;95685.53;5050093;28;20048;-64
2021/04/11 01:30:46;;;;;;;7.65;3.75;;;;;;;9.71;52.50;95685.41;5049389;28;20052;-64
2021/04/11 01:33:15;;;;;;;7.05;4.03;;;;;;;9.67;52.39;95679.81;5049692;28;20060;-65
2021/04/11 01:35:42;;;;;;;4.97;3.45;;;;;;;9.64;52.72;95677.75;5049444;28;20444;-64
2021/04/11 01:38:09;;;;;;;6.63;3.72;;;;;;;9.60;52.25;95679.53;5049242;28;20504;-65
2021/04/11 01:40:40;;;;;;;6.47;3.80;;;;;;;9.58;52.49;95681.00;5050044;28;20049;-64
2021/04/11 01:43:08;;;;;;;7.45;3.65;;;;;;;9.54;52.88;95683.56;5048841;28;20043;-65
2021/04/11 01:45:37;;;;;;;4.75;3.72;;;;;;;9.51;52.48;95673.34;5048050;28;20049;-64
2021/04/11 01:48:04;;;;;;;5.88;3.85;;;;;;;9.46;52.29;95673.53;5048627;28;20049;-65
2021/04/11 01:50:30;;;;;;;6.05;3.97;;;;;;;9.42;52.77;95669.88;5054330;28;20052;-64
2021/04/11 01:52:57;;;;;;;6.25;3.97;;;;;;;9.38;53.01;95666.22;5053062;28;20491;-64
2021/04/11 01:55:24;;;;;;;7.50;4.10;;;;;;;9.28;53.23;95664.66;5053574;28;20048;-64
2021/04/11 01:57:53;;;;;;;9.02;4.18;;;;;;;9.21;53.54;95672.53;5053169;28;20049;-64
2021/04/11 02:00:26;;;;;;;5.65;3.90;;;;;;;9.12;54.69;95666.31;5053028;28;20515;-64
2021/04/11 02:02:55;;;;;;;7.70;4.30;;;;;;;9.04;54.68;95665.22;5053157;28;20516;-64
2021/04/11 02:05:23;;;;;;;5.95;4.10;;;;;;;9.02;54.61;95667.47;5052089;28;20056;-64
2021/04/11 02:07:51;;;;;;;6.10;3.90;;;;;;;9.00;54.10;95667.00;5053264;28;20052;-64
2021/04/11 02:10:22;;;;;;;6.85;4.15;;;;;;;8.98;54.09;95660.28;5051903;28;20037;-64
2021/04/11 02:12:51;;;;;;;6.72;4.25;;;;;;;8.98;54.33;95658.41;5053912;28;20519;-64
2021/04/11 02:15:20;;;;;;;8.38;3.75;;;;;;;8.95;53.85;95656.31;5051961;28;20052;-64
2021/04/11 02:17:48;;;;;;;7.03;3.78;;;;;;;8.93;54.32;95655.84;5053021;28;20463;-64
2021/04/11 02:20:15;;;;;;;6.20;3.85;;;;;;;8.94;54.99;95654.72;5051875;28;20052;-64
2021/04/11 02:22:42;;;;;;;5.55;3.47;;;;;;;8.89;54.88;95657.63;5053055;28;20044;-64
2021/04/11 02:25:14;;;;;;;5.95;3.75;;;;;;;8.71;55.73;95664.19;5052626;28;20055;-64
2021/04/11 02:27:40;;;;;;;5.18;3.80;;;;;;;8.63;55.78;95666.59;5052292;28;20045;-64
2021/04/11 02:30:08;;;;;;;5.78;3.97;;;;;;;8.59;55.57;95657.50;5052792;28;20512;-64
2021/04/11 02:32:34;;;;;;;5.65;4.13;;;;;;;8.60;54.75;95659.09;5052398;28;20037;-64
2021/04/11 02:35:02;;;;;;;6.18;4.18;;;;;;;8.59;54.98;95654.78;5053443;28;20045;-64
2021/04/11 02:37:32;;;;;;;8.88;4.13;;;;;;;8.59;55.25;95656.72;5052076;28;20053;-64
2021/04/11 02:39:59;;;;;;;5.85;4.22;;;;;;;8.58;55.72;95660.56;5053248;28;20045;-64
2021/04/11 02:42:28;;;;;;;5.88;3.55;;;;;;;8.62;55.66;95656.88;5052115;28;20412;-64
2021/04/11 02:44:56;;;;;;;7.13;4.07;;;;;;;8.63;55.90;95663.09;5052407;28;20072;-64
2021/04/11 02:47:23;;;;;;;7.63;3.80;;;;;;;8.62;55.89;95659.59;5052434;28;20049;-64
2021/04/11 02:49:51;;;;;;;5.78;3.72;;;;;;;8.65;56.58;95660.84;5052241;28;20515;-64
2021/04/11 02:52:23;;;;;;;6.18;3.97;;;;;;;8.65;56.68;95666.28;5052440;28;20053;-64
2021/04/11 02:54:50;;;;;;;5.97;3.70;;;;;;;8.66;57.41;95661.66;5051987;28;20158;-64
2021/04/11 02:57:17;;;;;;;8.27;4.07;;;;;;;8.68;56.67;95660.22;5052530;28;20044;-64
2021/04/11 02:59:44;;;;;;;6.05;3.80;;;;;;;8.69;56.16;95661.00;5051548;28;20056;-63
2021/04/11 03:02:11;;;;;;;7.25;3.95;;;;;;;8.71;56.36;95656.03;5052195;28;20496;-64
2021/04/11 03:04:37;;;;;;;6.13;4.03;;;;;;;8.68;56.55;95643.94;5052163;28;20052;-64
2021/04/11 03:07:07;;;;;;;5.72;3.78;;;;;;;8.66;56.24;95650.78;5051866;28;20412;-64
2021/04/11 03:09:40;;;;;;;8.70;4.30;;;;;;;8.70;56.80;95657.97;5052518;28;20055;-64
2021/04/11 03:12:07;;;;;;;7.45;3.78;;;;;;;8.72;56.33;95649.50;5051362;28;20045;-64
2021/04/11 03:14:37;;;;;;;6.40;4.35;;;;;;;8.68;55.93;95649.38;5052625;28;20044;-64
2021/04/11 03:17:08;;;;;;;7.18;4.47;;;;;;;8.71;57.17;95647.91;5050968;28;20049;-65
2021/04/11 03:19:39;;;;;;;7.45;4.25;;;;;;;8.70;57.25;95646.31;5052823;28;20053;-64
2021/04/11 03:22:06;;;;;;;6.35;4.20;;;;;;;8.70;56.26;95651.75;5050882;28;20049;-64
2021/04/11 03:24:32;;;;;;;5.35;3.70;;;;;;;8.68;56.11;95649.38;5051931;28;20504;-64
2021/04/11 03:27:04;;;;;;;6.35;3.92;;;;;;;8.68;55.62;95651.28;5051549;28;20558;-64
2021/04/11 03:29:35;;;;;;;6.78;4.13;;;;;;;8.67;55.99;95641.56;5051551;28;20037;-64
2021/04/11 03:32:09;;;;;;;6.68;3.83;;;;;;;8.64;55.63;95648.41;5051478;28;20048;-65
2021/04/11 03:34:36;;;;;;;;;;;;;;;8.65;55.74;95641.06;5051839;28;20044;-64
2021/04/11 03:37:05;;;;;;;6.30;3.90;;;;;;;8.60;55.82;95648.25;5051969;28;19920;-65
2021/04/11 03:39:33;;;;;;;5.95;3.80;;;;;;;8.60;55.52;95642.81;5051086;28;20056;-64
2021/04/11 03:42:04;;;;;;;6.45;3.50;;;;;;;8.58;55.98;95645.06;5052337;28;20072;-64
2021/04/11 03:44:30;;;;;;;5.38;3.78;;;;;;;8.56;55.47;95633.75;5050658;28;20557;-64
2021/04/11 03:47:02;;;;;;;6.38;3.88;;;;;;;8.54;55.64;95637.88;5031550;28;20050;-64
2021/04/11 03:49:33;;;;;;;6.47;4.07;;;;;;;8.49;55.38;95636.13;5031400;28;20049;-64
2021/04/11 03:52:03;;;;;;;7.13;4.10;;;;;;;8.45;55.59;95639.81;5038907;28;20083;-64
2021/04/11 03:54:34;;;;;;;7.13;3.78;;;;;;;8.43;56.71;95640.13;5051625;28;20041;-64
2021/04/11 03:57:07;;;;;;;8.30;4.35;;;;;;;8.44;56.94;95638.22;5050639;28;20052;-64
2021/04/11 03:59:34;;;;;;;;;;;;;;;8.38;56.82;95637.59;5052317;28;20049;-64
2021/04/11 04:02:00;;;;;;;7.10;3.75;;;;;;;8.31;56.86;95637.25;5050700;28;20326;-64
2021/04/11 04:04:28;;;;;;;7.18;4.10;;;;;;;8.32;56.79;95642.34;5050964;28;20126;-64
2021/04/11 04:07:08;;;;;;;8.43;4.68;;;;;;;8.27;57.23;95645.22;5050807;28;20052;-64
2021/04/11 04:09:35;;;;;;;6.35;4.40;;;;;;;8.24;57.41;95645.06;5050854;28;20192;-63
2021/04/11 04:12:17;;;;;;;6.70;4.13;;;;;;;8.20;57.20;95634.06;5050352;28;20409;-68
2021/04/11 04:14:55;;;;;;;7.95;3.92;;;;;;;8.17;58.07;95642.06;5050429;28;20049;-64
2021/04/11 04:17:27;;;;;;;5.65;4.03;;;;;;;8.10;57.91;95634.41;5034551;28;20539;-65
2021/04/11 04:20:05;;;;;;;7.70;4.00;;;;;;;8.10;57.05;95635.19;5050607;28;20053;-63
2021/04/11 04:22:41;;;;;;;7.40;4.18;;;;;;;8.09;56.75;95633.59;5050760;28;20041;-64
2021/04/11 04:25:21;;;;;;;7.10;3.55;;;;;;;8.08;57.31;95631.19;5050290;28;20099;-65
2021/04/11 04:28:08;;;;;;;5.70;3.60;;;;;;;8.04;57.24;95636.47;5050025;28;20452;-64
2021/04/11 04:30:48;;;;;;;7.65;3.75;;;;;;;8.02;57.31;95633.28;5049530;28;20041;-64
2021/04/11 04:33:23;;;;;;;9.70;4.00;;;;;;;8.01;57.16;95634.38;5050691;28;20183;-64
2021/04/11 04:35:54;;;;;;;9.65;4.00;;;;;;;8.00;57.16;95642.84;5050956;28;20049;-63
2021/04/11 04:38:31;;;;;;;7.38;3.90;;;;;;;8.00;56.38;95645.56;5050599;28;20491;-63
2021/04/11 04:41:08;;;;;;;6.32;3.70;;;;;;;8.02;56.54;95638.69;5050182;28;20049;-65
2021/04/11 04:43:48;;;;;;;7.75;3.70;;;;;;;7.97;56.64;95646.97;5050911;28;20148;-66
2021/04/11 04:46:18;;;;;;;5.70;3.97;;;;;;;7.97;56.73;95649.69;5049137;28;20056;-63
2021/04/11 04:48:53;;;;;;;6.55;4.20;;;;;;;8.00;56.58;95651.78;5050709;28;20382;-66
2021/04/11 04:51:26;;;;;;;7.72;3.83;;;;;;;8.03;56.48;95653.03;5049564;28;20048;-66
2021/04/11 04:53:58;;;;;;;5.75;3.60;;;;;;;8.06;56.64;95653.22;5050422;28;20381;-66
2021/04/11 04:56:28;;;;;;;8.00;3.35;;;;;;;8.08;56.85;95652.88;5049999;28;20057;-66
2021/04/11 04:59:01;;;;;;;5.65;3.65;;;;;;;8.10;57.04;95656.88;5049674;28;20451;-66
2021/04/11 05:01:34;;;;;;;4.70;3.63;;;;;;;8.07;57.42;95652.09;5050543;28;20045;-65
2021/04/11 05:04:03;;;;;;;8.07;4.10;;;;;;;8.09;57.07;95655.31;5049559;28;20519;-65
2021/04/11 05:06:35;;;;;;;5.57;3.75;;;;;;;8.09;57.21;95663.44;5050392;28;20049;-63
2021/04/11 05:09:05;;;;;;;5.60;3.88;;;;;;;8.10;57.36;95659.59;5049479;28;20048;-66
2021/04/11 05:11:37;;;;;;;7.75;3.80;;;;;;;8.10;58.10;95653.38;5050060;28;20061;-64
2021/04/11 05:14:08;;;;;;;6.03;4.22;;;;;;;8.14;58.20;95661.66;5049741;28;20049;-64
2021/04/11 05:16:39;;;;;;;5.25;3.72;;;;;;;8.14;57.87;95661.66;5049527;28;20041;-64
2021/04/11 05:19:09;;;;;;;7.00;4.20;;;;;;;8.19;58.17;95658.78;5049972;28;20049;-64
2021/04/11 05:21:39;;;;;;;6.38;4.28;;;;;;;8.20;58.17;95665.84;5049321;28;20052;-63
2021/04/11 05:24:09;;;;;;;5.03;3.88;;;;;;;8.22;58.36;95663.59;5051630;28;20052;-64
2021/04/11 05:26:40;;;;;;;7.72;4.10;;;;;;;8.24;58.33;95666.75;5053477;28;20504;-65
2021/04/11 05:29:17;;;;;;;6.40;3.92;;;;;;;8.26;58.04;95669.97;5033749;28;20516;-65
2021/04/11 05:31:44;;;;;;;5.95;4.07;;;;;;;8.33;58.26;95667.56;5034266;28;20045;-64
2021/04/11 05:34:13;;;;;;;6.88;3.65;;;;;;;8.38;57.23;95669.34;5033350;28;20096;-64
2021/04/11 05:36:52;;;;;;;6.85;3.83;;;;;;;8.45;56.42;95662.31;5034494;28;20045;-63
2021/04/11 05:39:32;;;;;;;7.72;3.88;;;;;;;8.52;55.90;95669.97;5032859;28;20519;-64
2021/04/11 05:42:05;;;;;;;6.30;3.38;;;;;;;8.61;55.60;95668.84;5034536;28;20493;-64
2021/04/11 05:44:40;;;;;;;6.15;3.72;;;;;;;8.73;54.92;95667.41;5034758;28;20100;-64
2021/04/11 05:47:12;;;;;;;5.47;3.55;;;;;;;8.82;54.51;95670.88;5053414;28;20044;-64
2021/04/11 05:49:45;;;;;;;4.78;3.50;;;;;;;8.91;54.40;95671.66;5054072;28;20049;-64
2021/04/11 05:52:17;;;;;;;5.95;3.60;;;;;;;9.00;53.99;95677.88;5052692;28;20056;-64
2021/04/11 05:54:49;;;;;;;4.53;3.38;;;;;;;9.12;54.15;95675.25;5054252;28;20053;-63
2021/04/11 05:57:21;;;;;;;5.80;3.65;;;;;;;9.26;53.27;95666.13;5052417;28;20052;-64
2021/04/11 05:59:52;;;;;;;7.65;3.40;;;;;;;9.38;52.76;95671.66;5053868;28;20503;-64
2021/04/11 06:02:22;;;;;;;4.72;3.42;;;;;;;9.51;52.83;95665.19;5052614;28;20566;-64
2021/04/11 06:04:51;;;;;;;5.95;3.40;;;;;;;9.63;53.22;95659.84;5053205;28;20076;-64
2021/04/11 06:07:20;;;;;;;8.50;4.20;;;;;;;9.79;52.62;95670.16;5052862;28;20045;-64
2021/04/11 06:09:49;;;;;;;5.30;3.38;;;;;;;9.92;52.72;95671.84;5052703;28;20049;-64
2021/04/11 06:12:21;;;;;;;6.80;3.33;;;;;;;10.05;52.08;95657.19;5043740;28;20045;-67
2021/04/11 06:14:54;;;;;;;4.53;2.88;;;;;;;10.20;52.93;95663.94;5039853;28;20500;-68
2021/04/11 06:17:21;;;;;;;5.40;3.40;;;;;;;10.31;51.67;95658.94;5044648;28;20595;-67
2021/04/11 06:19:48;;;;;;;5.68;3.20;;;;;;;10.42;51.39;95660.91;5049378;28;20053;-68
2021/04/11 06:22:20;;;;;;;5.13;3.05;;;;;;;10.54;50.92;95662.88;5049784;28;20057;-68
2021/04/11 06:24:53;;;;;;;5.03;3.05;;;;;;;10.66;50.10;95662.16;5049630;28;20458;-68
2021/04/11 06:27:39;;;;;;;6.40;3.17;;;;;;;10.71;49.64;95657.28;5049054;28;20053;-68
2021/04/11 06:30:13;;;;;;;11.15;3.28;;;;;;;10.75;49.35;95657.41;5049853;28;20095;-68
2021/04/11 06:32:45;;;;;;;5.70;3.00;;;;;;;10.82;50.65;95656.88;5049231;28;20049;-68
2021/04/11 06:35:13;;;;;;;4.60;3.13;;;;;;;10.92;49.70;95657.25;5049598;28;20053;-67
2021/04/11 06:37:43;;;;;;;5.03;2.80;;;;;;;11.03;50.27;95654.88;5049479;28;20045;-68
2021/04/11 06:40:19;;;;;;;6.30;2.90;;;;;;;11.12;49.40;95660.22;5049384;28;20056;-68
2021/04/11 06:43:14;;;;;;;5.22;2.88;;;;;;;11.27;50.37;95653.31;5049236;28;20118;-68
2021/04/11 06:45:50;;;;;;;4.78;2.80;;;;;;;11.35;50.01;95647.75;5049593;28;20045;-68
2021/04/11 06:48:46;;;;;;;4.65;2.80;;;;;;;11.45;48.14;95641.06;5049693;28;20049;-68
2021/04/11 06:51:40;;;;;;;4.70;2.88;;;;;;;11.54;48.80;95641.75;5048797;28;20049;-68
2021/04/11 06:54:45;;;;;;;6.15;2.70;;;;;;;11.71;49.47;95635.25;5048581;28;20586;-68
2021/04/11 06:57:29;;;;;;;4.53;2.75;;;;;;;11.77;49.38;95637.41;5008783;28;20151;-68
2021/04/11 07:00:05;;;;;;;5.95;2.80;;;;;;;11.87;47.58;95632.66;5048830;28;20049;-68
2021/04/11 07:03:04;;;;;;;4.53;3.15;;;;;;;11.98;47.23;95620.91;5048908;28;20056;-67
2021/04/11 07:06:13;;;;;;;4.80;2.90;;;;;;;12.09;47.40;95620.44;5049314;28;20044;-68
2021/04/11 07:08:58;;;;;;;4.45;2.83;;;;;;;12.25;47.18;95629.50;5027933;28;20553;-67
2021/04/11 07:11:45;;;;;;;4.22;3.13;;;;;;;12.44;45.39;95637.06;5048601;28;20068;-67
2021/04/11 07:14:56;;;;;;;5.85;2.83;;;;;;;12.56;44.24;95628.81;5048509;28;20052;-71
2021/04/11 07:17:43;;;;;;;5.40;2.92;;;;;;;12.70;44.50;95629.22;5028426;28;20049;-66
2021/04/11 07:20:30;;;;;;;5.22;2.65;;;;;;;12.85;43.19;95624.13;5028654;28;20062;-67
2021/04/11 07:23:28;;;;;;;6.68;2.58;;;;;;;13.00;44.90;95626.09;5044226;28;20072;-67
2021/04/11 07:26:29;;;;;;;5.75;2.65;;;;;;;13.21;44.37;95625.84;5047780;28;20523;-66
2021/04/11 07:29:06;;;;;;;3.47;2.30;;;;;;;13.33;43.49;95620.31;5044793;28;20060;-67
2021/04/11 07:31:50;;;;;;;4.88;2.60;;;;;;;13.53;42.82;95621.19;5048313;28;20048;-67
2021/04/11 07:34:45;;;;;;;4.10;2.70;;;;;;;13.79;43.47;95618.69;5047706;28;20067;-66
2021/04/11 07:37:25;;;;;;;6.95;2.42;;;;;;;14.08;42.44;95619.28;5048493;28;20060;-67
2021/04/11 07:39:58;;;;;;;5.30;2.53;;;;;;;14.30;41.41;95621.34;5048090;28;20080;-67
2021/04/11 07:42:59;;;;;;;4.18;2.38;;;;;;;14.34;41.34;95622.19;5047718;28;20061;-66
2021/04/11 07:45:33;;;;;;;4.38;1.98;;;;;;;14.30;40.31;95626.84;5037488;28;20045;-67
2021/04/11 07:48:32;;;;;;;4.40;2.60;;;;;;;14.44;40.49;95622.78;5045995;28;20053;-67
2021/04/11 07:51:13;;;;;;;4.18;2.30;;;;;;;14.60;40.23;95629.00;5048287;28;20397;-69
2021/04/11 07:54:11;;;;;;;5.00;2.60;;;;;;;14.72;41.80;95626.13;5027102;28;20052;-68
2021/04/11 07:56:54;;;;;;;5.85;2.85;;;;;;;14.81;42.67;95629.41;5021597;28;20053;-68
2021/04/11 07:59:33;;;;;;;4.33;2.80;;;;;;;14.82;42.97;95628.25;5027400;28;20041;-68
2021/04/11 08:02:22;;;;;;;5.88;2.70;;;;;;;14.89;42.14;95627.63;5027394;28;20505;-68
2021/04/11 08:05:29;;;;;;;3.88;2.50;;;;;;;15.34;40.94;95628.78;5043890;28;20087;-68
2021/04/11 08:08:06;;;;;;;3.72;2.60;;;;;;;15.72;39.19;95630.66;5007786;28;20562;-66
2021/04/11 08:10:51;;;;;;;3.72;2.40;;;;;;;16.08;39.36;95628.44;5046780;28;20057;-68
2021/04/11 08:13:48;;;;;;;4.10;2.55;;;;;;;16.38;38.22;95631.97;5047143;28;20420;-66
2021/04/11 08:16:29;;;;;;;4.53;2.67;;;;;;;16.59;38.19;95625.94;5046790;28;20053;-66
2021/04/11 08:19:14;;;;;;;7.03;2.65;;;;;;;16.91;38.77;95631.03;5047672;28;20083;-67
2021/04/11 08:21:44;;;;;;;4.50;2.55;;;;;;;17.17;36.38;95633.69;5047508;28;20063;-67
2021/04/11 08:24:44;;;;;;;4.75;2.55;;;;;;;17.67;35.18;95633.34;5046506;28;20163;-67
2021/04/11 08:27:42;;;;;;;3.80;2.20;;;;;;;18.50;33.05;95630.75;5046612;28;20100;-68
2021/04/11 08:30:22;;;;;;;3.20;2.10;;;;;;;19.31;31.51;95631.44;5046684;28;20053;-68
2021/04/11 08:33:13;;;;;;;5.43;2.40;;;;;;;19.96;30.80;95632.28;5046524;28;20425;-68
2021/04/11 08:36:00;;;;;;;3.42;2.10;;;;;;;20.56;31.73;95625.84;5047269;28;20102;-67
2021/04/11 08:38:42;;;;;;;2.47;1.83;;;;;;;21.31;29.67;95628.31;5046653;28;20053;-67
2021/04/11 08:41:38;;;;;;;2.47;1.98;;;;;;;22.10;27.83;95629.28;5046279;28;20049;-70
2021/04/11 08:44:16;;;;;;;2.25;1.83;;;;;;;22.99;25.62;95622.00;5047201;28;20044;-68
2021/04/11 08:46:59;;;;;;;4.78;1.92;;;;;;;23.44;25.41;95616.22;5045070;28;20244;-67
2021/04/11 08:49:29;;;;;;;4.30;1.83;;;;;;;24.10;22.51;95620.34;5044539;28;20059;-67
2021/04/11 08:52:03;;;;;;;2.33;1.40;;;;;;;24.63;25.17;95624.16;5046570;28;20056;-67
2021/04/11 08:54:48;;;;;;;3.67;1.40;;;;;;;25.18;23.49;95615.09;5045955;28;20666;-67
2021/04/11 08:57:28;;;;;;;2.42;1.35;;;;;;;25.48;21.47;95616.81;5046570;28;20493;-68
2021/04/11 08:59:56;;;;;;;3.92;1.80;;;;;;;25.27;21.60;95600.59;5046359;28;20052;-68
2021/04/11 09:02:36;;;;;;;1.95;1.40;;;;;;;25.46;22.04;95601.75;5046859;28;20049;-67
2021/04/11 09:05:15;;;;;;;3.65;1.50;;;;;;;25.15;21.52;95599.25;5046432;28;20064;-68
2021/04/11 09:07:56;;;;;;;3.88;1.83;;;;;;;25.35;22.26;95590.06;5046567;28;20476;-67
2021/04/11 09:10:36;;;;;;;4.80;1.60;;;;;;;25.21;22.82;95596.72;5046867;28;20045;-67
2021/04/11 09:13:15;;;;;;;4.82;1.70;;;;;;;25.17;21.63;95593.25;5045698;28;20060;-69
2021/04/11 09:15:48;;;;;;;2.58;1.70;;;;;;;25.50;21.83;95591.28;5044973;28;20118;-67
2021/04/11 09:18:34;;;;;;;2.65;1.85;;;;;;;25.61;22.55;95586.25;5045845;28;20049;-68
2021/04/11 09:21:23;;;;;;;2.70;2.00;;;;;;;25.00;22.81;95578.44;5045548;28;20072;-67
2021/04/11 09:23:58;;;;;;;2.83;1.95;;;;;;;24.72;22.98;95582.63;5046855;28;20588;-67
2021/04/11 09:26:59;;;;;;;2.35;1.67;;;;;;;24.46;23.10;95576.78;5044657;28;20053;-67
2021/04/11 09:29:35;;;;;;;3.55;2.00;;;;;;;24.62;23.88;95575.28;5022199;28;20505;-67
2021/04/11 09:32:15;;;;;;;3.55;1.75;;;;;;;24.97;23.98;95579.31;5025868;28;20484;-67
2021/04/11 09:35:14;;;;;;;3.45;1.85;;;;;;;25.30;22.02;95585.00;5031825;28;20102;-67
2021/04/11 09:38:26;;;;;;;3.38;2.00;;;;;;;25.62;21.54;95582.25;5046157;28;20056;-67
2021/04/11 09:41:09;;;;;;;3.38;2.10;;;;;;;25.27;20.76;95583.88;5026613;28;20045;-67
2021/04/11 09:44:01;;;;;;;2.95;2.05;;;;;;;25.17;23.22;95584.91;5045406;28;20045;-68
2021/04/11 09:46:57;;;;;;;3.87;2.20;;;;;;;25.28;22.90;95593.78;5046175;28;20052;-68
2021/04/11 09:49:39;;;;;;;2.70;1.80;;;;;;;25.38;22.05;95589.19;5045420;28;20511;-68
2021/04/11 09:52:31;;;;;;;3.97;1.90;;;;;;;25.34;22.03;95589.28;5045305;28;20045;-67
2021/04/11 09:55:07;;;;;;;3.67;1.83;;;;;;;25.32;22.11;95596.47;5037598;28;20072;-67
2021/04/11 09:57:51;;;;;;;4.65;2.00;;;;;;;25.38;23.53;95578.06;5045638;28;20044;-69
2021/04/11 10:00:25;;;;;;;3.10;1.75;;;;;;;25.29;22.64;95584.22;5046274;28;20562;-68
2021/04/11 10:03:07;;;;;;;4.30;2.10;;;;;;;25.13;23.01;95578.63;5045708;28;20055;-69
2021/04/11 10:05:45;;;;;;;4.18;1.80;;;;;;;25.21;22.12;95580.00;5046997;28;20045;-68
2021/04/11 10:08:34;;;;;;;3.72;1.70;;;;;;;25.13;22.76;95582.19;5046090;28;20056;-68
2021/04/11 10:11:12;;;;;;;4.43;2.00;;;;;;;25.32;22.64;95582.56;5044487;28;20076;-69
2021/04/11 10:14:06;;;;;;;2.47;2.03;;;;;;;25.39;21.81;95574.03;5049584;28;20049;-67
2021/04/11 10:16:38;;;;;;;3.72;2.03;;;;;;;25.41;22.90;95566.03;5049512;28;20484;-68
2021/04/11 10:19:28;;;;;;;6.07;2.03;;;;;;;25.48;22.43;95561.09;5048930;28;20049;-68
2021/04/11 10:22:07;;;;;;;3.50;2.20;;;;;;;25.61;21.53;95563.94;5050378;28;20053;-68
2021/04/11 10:24:45;;;;;;;3.08;2.00;;;;;;;25.39;21.85;95557.31;5048979;28;20052;-68
2021/04/11 10:27:19;;;;;;;3.75;2.03;;;;;;;24.84;21.50;95550.56;5048932;28;20052;-67
2021/04/11 10:29:48;;;;;;;6.68;2.40;;;;;;;24.67;23.52;95563.63;5049510;28;20057;-67
2021/04/11 10:32:22;;;;;;;2.83;1.98;;;;;;;24.61;23.58;95560.56;5048672;28;20057;-67
2021/04/11 10:35:00;;;;;;;3.92;2.38;;;;;;;24.56;22.59;95555.50;5049671;28;20037;-68
2021/04/11 10:37:33;;;;;;;3.63;2.10;;;;;;;24.38;23.41;95555.06;5048530;28;20095;-68
2021/04/11 10:40:15;;;;;;;2.58;2.00;;;;;;;24.15;22.80;95556.66;5049819;28;20055;-69
2021/04/11 10:43:01;;;;;;;7.45;2.20;;;;;;;23.76;25.48;95553.81;5048300;28;20045;-68
2021/04/11 10:45:36;;;;;;;5.50;2.47;;;;;;;23.79;25.43;95541.84;5048592;28;20119;-69
2021/04/11 10:48:33;;;;;;;4.18;2.13;;;;;;;23.71;24.65;95543.19;5049275;28;20072;-69
2021/04/11 10:51:27;;;;;;;4.03;2.00;;;;;;;23.56;24.39;95543.38;5048315;28;20049;-68
2021/04/11 10:54:11;;;;;;;3.72;2.50;;;;;;;23.65;25.73;95540.09;5029020;28;20077;-67
2021/04/11 10:56:49;;;;;;;3.38;1.80;;;;;;;23.73;24.91;95538.75;5028938;28;20077;-68
2021/04/11 10:59:31;;;;;;;2.70;1.85;;;;;;;23.99;25.83;95537.09;5028874;28;20045;-67
2021/04/11 11:02:32;;;;;;;2.67;2.00;;;;;;;23.99;23.63;95542.66;5029843;28;20083;-67
2021/04/11 11:05:24;;;;;;;4.38;1.98;;;;;;;23.85;27.42;95535.34;5028167;28;20484;-68
2021/04/11 11:08:05;;;;;;;3.95;1.90;;;;;;;23.87;23.70;95540.50;5014793;28;20049;-67
2021/04/11 11:10:47;;;;;;;3.92;2.10;;;;;;;23.85;24.08;95537.34;5029612;28;20137;-67
2021/04/11 11:13:29;;;;;;;5.03;2.45;;;;;;;23.48;23.30;95530.78;5027347;28;20045;-69
2021/04/11 11:16:12;;;;;;;3.28;2.22;;;;;;;23.36;25.55;95534.19;5042332;28;20060;-69
2021/04/11 11:19:09;;;;;;;5.50;2.17;;;;;;;23.30;25.25;95533.09;5048532;28;20098;-67
2021/04/11 11:22:03;;;;;;;2.97;1.90;;;;;;;23.29;24.90;95529.53;5047653;28;20045;-68
2021/04/11 11:24:52;;;;;;;4.55;2.22;;;;;;;23.38;25.87;95531.75;5048705;28;20519;-67
2021/04/11 11:28:00;;;;;;;3.22;1.80;;;;;;;23.37;25.09;95524.63;5047200;28;20053;-68
2021/04/11 11:30:34;;;;;;;3.00;1.65;;;;;;;23.62;26.54;95529.78;5047644;28;20091;-67
2021/04/11 11:33:17;;;;;;;2.63;1.63;;;;;;;23.96;24.23;95529.59;5047131;28;20053;-67
2021/04/11 11:36:00;;;;;;;4.70;1.70;;;;;;;24.24;24.15;95530.28;5046804;28;20037;-69
2021/04/11 11:38:32;;;;;;;3.80;2.03;;;;;;;24.09;23.01;95524.22;5048328;28;20041;-69
2021/04/11 11:41:07;;;;;;;3.38;1.75;;;;;;;24.34;22.85;95518.97;5048350;28;20061;-68
2021/04/11 11:43:37;;;;;;;3.88;1.45;;;;;;;24.25;22.08;95520.72;5047778;28;20045;-69
2021/04/11 11:46:16;;;;;;;4.07;2.00;;;;;;;24.14;22.80;95516.16;5048127;28;20056;-70
2021/04/11 11:48:58;;;;;;;5.10;1.70;;;;;;;23.92;25.16;95523.34;5047332;28;20048;-69
2021/04/11 11:51:41;;;;;;;3.00;1.70;;;;;;;23.77;23.58;95525.59;5048182;28;20110;-69
2021/04/11 11:54:13;;;;;;;4.22;1.58;;;;;;;23.67;25.09;95519.00;5047224;28;20049;-68
2021/04/11 11:56:45;;;;;;;1.92;1.42;;;;;;;23.93;26.04;95525.69;5051583;28;20057;-68
2021/04/11 11:59:17;;;;;;;3.20;1.40;;;;;;;24.07;24.75;95521.88;5031556;28;20096;-68
2021/04/11 12:01:49;;;;;;;3.73;1.80;;;;;;;24.23;24.26;95517.59;5029944;28;20061;-68
2021/04/11 12:04:47;;;;;;;3.85;2.05;;;;;;;24.28;24.39;95508.75;5031126;28;20096;-67
2021/04/11 12:07:23;;;;;;;2.38;1.40;;;;;;;24.27;23.01;95507.16;5030013;28;20570;-67
2021/04/11 12:10:05;;;;;;;8.60;5.13;;;;;;;24.41;24.52;95507.69;5030652;28;20519;-67
2021/04/11 12:12:36;;;;;;;2.13;1.58;;;;;;;24.38;22.68;95510.53;5031125;28;20091;-68
2021/04/11 12:15:06;;;;;;;2.97;1.75;;;;;;;24.23;23.15;95509.25;5035695;28;20045;-68
2021/04/11 12:17:43;;;;;;;3.75;1.98;;;;;;;24.04;24.24;95505.25;5051683;28;20037;-67
2021/04/11 12:20:15;;;;;;;2.78;1.90;;;;;;;23.79;24.48;95514.03;5049470;28;20040;-68